Time;durP1;ratioP1;P1;durP2;ratioP2;P2;SDS_P1;SDS_P2;PMS_P1;PMS_P2;Temp;Humidity;BMP_temperature;BMP_pressure;BME280_temperature;BME280_humidity;BME280_pressure;Samples;Min_cycle;Max_cycle;Signal;HPM_P1;HPM_P2
2023/07/13 00:02:14;;;;;;;17.02;13.27;;;;;;;21.77;84.68;97754.84;10324464;28;20121;-51
2023/07/13 00:07:14;;;;;;;17.20;13.95;;;;;;;21.74;84.66;97748.88;10324490;28;20025;-49
2023/07/13 00:12:33;;;;;;;15.82;13.52;;;;;;;21.65;85.60;97749.28;10324943;28;20120;-52
2023/07/13 00:17:33;;;;;;;18.83;14.45;;;;;;;21.45;86.56;97726.41;10323000;28;20076;-51
2023/07/13 00:22:32;;;;;;;17.77;14.73;;;;;;;21.44;87.64;97733.47;10320212;28;20100;-51
2023/07/13 00:27:31;;;;;;;17.52;14.68;;;;;;;21.36;87.81;97724.19;10324219;28;20068;-51
2023/07/13 00:32:30;;;;;;;19.35;15.18;;;;;;;21.35;88.19;97733.91;10323937;28;20116;-51
2023/07/13 00:37:30;;;;;;;20.52;14.60;;;;;;;21.25;89.14;97735.25;10324060;28;20460;-51
2023/07/13 00:42:29;;;;;;;17.00;14.95;;;;;;;21.17;89.02;97732.03;10323653;28;20053;-51
2023/07/13 00:47:28;;;;;;;17.85;14.98;;;;;;;20.92;89.01;97698.84;10327194;28;20504;-51
2023/07/13 00:52:28;;;;;;;16.70;14.65;;;;;;;21.06;89.11;97733.38;10332171;28;20372;-51
2023/07/13 00:57:27;;;;;;;17.85;14.52;;;;;;;21.00;89.64;97735.41;10331689;28;20108;-51
2023/07/13 01:02:28;;;;;;;14.43;12.23;;;;;;;21.00;88.28;97709.88;10332768;28;20061;-49
2023/07/13 01:07:27;;;;;;;14.77;11.70;;;;;;;20.93;87.45;97722.47;10330198;28;20186;-51
2023/07/13 01:12:26;;;;;;;17.83;13.18;;;;;;;20.85;86.91;97718.50;10331343;28;20108;-51
2023/07/13 01:17:26;;;;;;;16.77;12.70;;;;;;;20.64;87.54;97704.44;10331974;28;20044;-50
2023/07/13 01:22:26;;;;;;;18.08;13.05;;;;;;;20.80;87.12;97715.19;10331227;28;20057;-48
2023/07/13 01:27:26;;;;;;;17.20;13.50;;;;;;;20.74;88.70;97716.28;10331618;28;20156;-52
2023/07/13 01:32:25;;;;;;;17.92;13.77;;;;;;;20.64;89.18;97728.16;10331398;28;20128;-52
2023/07/13 01:37:26;;;;;;;16.92;12.75;;;;;;;20.42;90.61;97723.78;10330060;28;20129;-51
2023/07/13 01:42:25;;;;;;;17.63;13.90;;;;;;;20.31;90.88;97718.06;10330658;28;20065;-50
2023/07/13 01:47:25;;;;;;;16.35;13.68;;;;;;;20.37;90.14;97723.06;10330311;28;20029;-52
2023/07/13 01:52:24;;;;;;;17.23;13.05;;;;;;;20.34;90.23;97707.38;10329910;28;20116;-50
2023/07/13 01:57:23;;;;;;;14.10;12.32;;;;;;;20.38;89.85;97718.69;10329032;28;20029;-50
2023/07/13 02:02:23;;;;;;;17.10;12.80;;;;;;;20.33;89.35;97708.31;10328933;28;20036;-52
2023/07/13 02:07:22;;;;;;;13.85;12.13;;;;;;;20.34;89.00;97719.72;10328901;28;20079;-50
2023/07/13 02:12:21;;;;;;;16.35;13.00;;;;;;;20.32;88.59;97718.91;10329146;28;20130;-51
2023/07/13 02:17:20;;;;;;;16.65;13.00;;;;;;;20.21;89.14;97712.31;10328943;28;20106;-52
2023/07/13 02:22:19;;;;;;;17.65;11.90;;;;;;;20.17;89.75;97708.09;10328246;28;20010;-51
2023/07/13 02:27:18;;;;;;;15.95;12.40;;;;;;;20.19;89.78;97711.53;10329374;28;20518;-51
2023/07/13 02:32:17;;;;;;;17.85;13.35;;;;;;;20.19;89.56;97722.06;10327742;28;20084;-51
2023/07/13 02:37:16;;;;;;;16.05;12.80;;;;;;;20.14;90.08;97709.97;10326894;28;20061;-52
2023/07/13 02:42:15;;;;;;;18.23;13.20;;;;;;;20.11;90.50;97720.66;10327450;28;20096;-51
2023/07/13 02:47:14;;;;;;;21.30;12.73;;;;;;;19.98;90.95;97726.41;10327782;28;20116;-49
2023/07/13 02:52:13;;;;;;;19.42;14.15;;;;;;;19.98;90.58;97721.13;10328140;28;20052;-50
2023/07/13 02:57:12;;;;;;;20.67;14.30;;;;;;;19.91;90.99;97713.50;10327073;28;20116;-51
2023/07/13 03:02:11;;;;;;;19.58;12.95;;;;;;;19.81;90.69;97718.28;10327992;28;20021;-49
2023/07/13 03:07:10;;;;;;;18.48;13.45;;;;;;;19.75;90.71;97722.03;10327648;28;20494;-51
2023/07/13 03:12:09;;;;;;;18.95;13.85;;;;;;;19.54;91.72;97707.88;10325772;28;20049;-51
2023/07/13 03:17:08;;;;;;;21.83;13.70;;;;;;;19.76;91.13;97730.78;10326473;28;20430;-51
2023/07/13 03:22:07;;;;;;;19.13;13.10;;;;;;;19.79;91.12;97726.28;10325423;28;20455;-51
2023/07/13 03:27:06;;;;;;;24.98;15.63;;;;;;;19.83;90.93;97730.47;10324767;28;20033;-51
2023/07/13 03:32:06;;;;;;;26.48;13.20;;;;;;;19.78;91.01;97737.69;10298324;28;20166;-51
2023/07/13 03:37:05;;;;;;;18.90;14.65;;;;;;;19.61;90.48;97684.84;10325249;28;20077;-51
2023/07/13 03:42:04;;;;;;;19.33;13.80;;;;;;;20.00;89.77;97734.22;10324253;28;20179;-51
2023/07/13 03:47:05;;;;;;;16.48;12.25;;;;;;;19.98;89.56;97744.84;10325357;28;20068;-51
2023/07/13 03:52:05;;;;;;;18.33;12.82;;;;;;;20.12;89.32;97740.78;10325006;28;20069;-52
2023/07/13 03:57:04;;;;;;;20.83;13.07;;;;;;;20.21;88.55;97738.66;10325034;28;20116;-50
2023/07/13 04:02:04;;;;;;;20.20;13.20;;;;;;;20.22;88.84;97729.84;10324768;28;20073;-50
2023/07/13 04:07:04;;;;;;;22.60;14.38;;;;;;;20.31;88.35;97746.22;10324958;28;20069;-49
2023/07/13 04:12:03;;;;;;;21.05;13.73;;;;;;;20.37;88.20;97746.78;10323923;28;20075;-51
2023/07/13 04:17:02;;;;;;;19.60;12.48;;;;;;;20.40;87.88;97735.28;10321973;28;20065;-53
2023/07/13 04:22:01;;;;;;;19.00;12.55;;;;;;;20.55;87.47;97741.72;10322915;28;20530;-52
2023/07/13 04:27:01;;;;;;;19.48;12.85;;;;;;;20.70;87.09;97741.97;10323165;28;20562;-53
2023/07/13 04:32:00;;;;;;;17.77;11.95;;;;;;;20.85;86.19;97745.72;10323322;28;20088;-50
2023/07/13 04:37:01;;;;;;;23.95;13.30;;;;;;;21.05;85.31;97758.03;10278789;28;20491;-51
2023/07/13 04:42:00;;;;;;;22.95;12.52;;;;;;;21.28;84.05;97749.16;10281784;28;20042;-52
2023/07/13 04:46:59;;;;;;;20.70;11.50;;;;;;;21.54;83.09;97747.13;10281491;28;20042;-51
2023/07/13 04:51:58;;;;;;;23.27;10.93;;;;;;;21.83;82.49;97751.06;10281821;28;20132;-49
2023/07/13 04:56:57;;;;;;;21.67;12.35;;;;;;;22.05;81.28;97750.09;10280794;28;20037;-50
2023/07/13 05:01:56;;;;;;;19.63;12.27;;;;;;;22.31;78.99;97756.78;10282290;28;20125;-51
2023/07/13 05:06:55;;;;;;;41.45;14.43;;;;;;;22.24;82.04;97758.00;10281759;28;20108;-52
2023/07/13 05:11:53;;;;;;;39.67;16.15;;;;;;;22.41;82.13;97760.66;10281242;28;20046;-52
2023/07/13 05:16:52;;;;;;;22.08;15.65;;;;;;;22.51;82.84;97745.25;10282356;28;20486;-52
2023/07/13 05:21:51;;;;;;;24.08;17.45;;;;;;;22.58;83.10;97751.94;10283645;28;20097;-52
2023/07/13 05:26:50;;;;;;;28.42;18.58;;;;;;;22.78;82.84;97748.31;10282805;28;20033;-52
2023/07/13 05:31:50;;;;;;;28.08;17.75;;;;;;;23.08;81.62;97752.97;10282282;28;20423;-52
2023/07/13 05:36:49;;;;;;;26.05;17.35;;;;;;;23.37;80.66;97748.78;10288642;28;20129;-52
2023/07/13 05:41:48;;;;;;;25.13;17.40;;;;;;;23.58;80.06;97766.25;10288209;28;20057;-52
2023/07/13 05:46:47;;;;;;;25.35;16.92;;;;;;;23.83;79.26;97751.66;10289485;28;20050;-52
2023/07/13 05:51:46;;;;;;;37.40;16.13;;;;;;;24.14;78.44;97755.25;10288328;28;20062;-52
2023/07/13 05:56:45;;;;;;;30.63;14.38;;;;;;;24.41;76.58;97764.34;10287159;28;20038;-49
2023/07/13 06:01:44;;;;;;;24.80;13.00;;;;;;;24.87;75.09;97767.03;10289114;28;20128;-52
2023/07/13 06:06:43;;;;;;;23.00;11.68;;;;;;;25.25;72.30;97761.22;10288165;28;20040;-49
2023/07/13 06:11:42;;;;;;;17.60;10.38;;;;;;;25.67;70.13;97767.53;10288236;28;20719;-51
2023/07/13 06:16:41;;;;;;;17.70;8.82;;;;;;;26.03;65.35;97752.88;10287783;28;20030;-51
2023/07/13 06:21:40;;;;;;;18.75;9.13;;;;;;;25.68;64.21;97636.34;10288356;28;20129;-51
2023/07/13 06:26:39;;;;;;;20.73;9.60;;;;;;;26.76;61.69;97746.38;10281701;28;20073;-51
2023/07/13 06:31:38;;;;;;;18.17;10.27;;;;;;;27.19;59.71;97760.34;10285766;28;20045;-52
2023/07/13 06:36:38;;;;;;;17.77;9.52;;;;;;;27.50;58.44;97738.72;10287003;28;20030;-52
2023/07/13 06:41:38;;;;;;;14.75;9.50;;;;;;;27.77;58.08;97722.56;10287366;28;20073;-49
2023/07/13 06:46:37;;;;;;;13.77;8.35;;;;;;;28.32;56.53;97752.44;10284201;28;20129;-52
2023/07/13 06:51:36;;;;;;;16.75;7.97;;;;;;;28.60;54.72;97732.56;10285305;28;20029;-51
2023/07/13 06:56:35;;;;;;;17.30;9.18;;;;;;;28.96;54.42;97739.63;10297112;28;20398;-51
2023/07/13 07:01:34;;;;;;;13.48;7.57;;;;;;;29.28;51.84;97733.66;10277715;28;20144;-53
2023/07/13 07:06:33;;;;;;;10.00;7.40;;;;;;;29.43;49.41;97727.09;10292504;28;20026;-53
2023/07/13 07:11:32;;;;;;;11.50;7.95;;;;;;;29.70;50.24;97733.94;10281158;28;20045;-53
2023/07/13 07:16:31;;;;;;;18.20;8.73;;;;;;;29.90;49.02;97741.22;10286446;28;20048;-49
2023/07/13 07:21:31;;;;;;;15.40;8.85;;;;;;;30.06;49.63;97723.94;10288726;28;21473;-54
2023/07/13 07:26:30;;;;;;;12.98;8.05;;;;;;;30.34;49.85;97723.38;10287852;28;20072;-54
2023/07/13 07:31:29;;;;;;;13.70;8.15;;;;;;;30.34;46.79;97664.47;10288345;28;20141;-52
2023/07/13 07:36:28;;;;;;;14.02;8.32;;;;;;;30.85;45.17;97704.97;10288390;28;20041;-53
2023/07/13 07:41:27;;;;;;;13.20;7.90;;;;;;;31.08;43.78;97695.84;10288054;28;20554;-52
2023/07/13 07:46:26;;;;;;;16.17;8.57;;;;;;;31.37;44.25;97695.13;10286305;28;20535;-53
2023/07/13 07:51:26;;;;;;;10.55;8.30;;;;;;;31.56;42.93;97689.03;10287352;28;20485;-52
2023/07/13 07:56:25;;;;;;;11.70;7.72;;;;;;;31.74;42.15;97689.25;10286810;28;20074;-52
2023/07/13 08:01:24;;;;;;;8.38;6.63;;;;;;;31.92;41.35;97678.69;10293837;28;20053;-52
2023/07/13 08:06:23;;;;;;;10.32;6.80;;;;;;;32.13;40.24;97684.00;10286478;28;20058;-53
2023/07/13 08:11:22;;;;;;;8.27;6.00;;;;;;;32.27;40.55;97685.41;10279522;28;20129;-53
2023/07/13 08:16:22;;;;;;;9.65;6.18;;;;;;;32.49;40.24;97681.63;10297857;28;20133;-53
2023/07/13 08:21:21;;;;;;;11.18;6.05;;;;;;;32.67;38.74;97684.47;10286570;28;20819;-53
2023/07/13 08:26:21;;;;;;;11.60;6.93;;;;;;;32.76;36.98;97679.13;10285921;28;20057;-51
2023/07/13 08:31:20;;;;;;;11.13;5.93;;;;;;;32.90;35.13;97675.09;10286298;28;20076;-51
2023/07/13 08:36:19;;;;;;;11.95;5.95;;;;;;;32.79;33.62;97648.41;10286361;28;20045;-52
2023/07/13 08:41:18;;;;;;;12.25;6.22;;;;;;;33.12;34.61;97682.03;10286092;28;20139;-51
2023/07/13 08:46:24;;;;;;;11.55;6.72;;;;;;;33.36;35.32;97681.53;10291879;28;20128;-51
2023/07/13 08:51:44;;;;;;;14.20;6.60;;;;;;;33.44;35.22;97691.53;10285806;28;20073;-52
2023/07/13 08:56:45;;;;;;;11.13;6.75;;;;;;;33.55;36.87;97696.75;10285862;28;20074;-51
2023/07/13 09:02:02;;;;;;;9.02;6.05;;;;;;;33.76;35.01;97719.94;10285123;28;20071;-52
2023/07/13 09:07:22;;;;;;;10.73;5.35;;;;;;;33.62;31.15;97730.19;10286810;28;20073;-52
2023/07/13 09:12:46;;;;;;;11.00;5.70;;;;;;;33.68;29.70;97718.00;10292674;28;20767;-52
2023/07/13 09:17:50;;;;;;;9.77;5.78;;;;;;;33.87;30.06;97715.19;10293366;28;20065;-51
2023/07/13 09:22:50;;;;;;;9.55;5.60;;;;;;;33.76;28.53;97725.31;10293201;28;20069;-53
2023/07/13 09:27:55;;;;;;;10.75;5.82;;;;;;;34.05;30.22;97719.75;10293105;28;20057;-53
2023/07/13 09:32:54;;;;;;;8.93;5.47;;;;;;;34.22;29.21;97716.31;10292650;28;20081;-52
2023/07/13 09:38:04;;;;;;;10.55;5.53;;;;;;;34.34;29.22;97697.22;10293255;28;20112;-52
2023/07/13 09:43:04;;;;;;;10.57;5.80;;;;;;;34.35;28.69;97698.91;10293097;28;20065;-52
2023/07/13 09:48:07;;;;;;;11.48;6.50;;;;;;;34.30;28.35;97673.28;10292072;28;20053;-53
2023/07/13 09:53:18;;;;;;;9.75;5.47;;;;;;;34.50;28.04;97687.44;10291145;28;20080;-52
2023/07/13 09:58:20;;;;;;;8.52;5.50;;;;;;;34.39;27.38;97690.38;10290787;28;20120;-50
2023/07/13 10:03:22;;;;;;;9.30;5.47;;;;;;;34.63;27.99;97684.38;10288475;28;20058;-52
2023/07/13 10:08:29;;;;;;;11.82;5.78;;;;;;;34.81;28.07;97676.28;10282718;28;20178;-52
2023/07/13 10:13:34;;;;;;;12.05;5.45;;;;;;;34.93;27.68;97669.63;10288802;28;20129;-53
2023/07/13 10:18:41;;;;;;;9.45;6.05;;;;;;;35.03;27.41;97676.78;10290486;28;20061;-52
2023/07/13 10:23:42;;;;;;;13.35;5.45;;;;;;;35.19;27.90;97679.59;10290096;28;20045;-52
2023/07/13 10:28:45;;;;;;;10.38;5.30;;;;;;;35.29;27.58;97656.09;10290649;28;20494;-52
2023/07/13 10:33:44;;;;;;;8.20;5.05;;;;;;;35.43;26.52;97660.00;10290925;28;20066;-52
2023/07/13 10:38:46;;;;;;;10.82;5.60;;;;;;;35.66;26.13;97646.81;10290711;28;20065;-52
2023/07/13 10:43:51;;;;;;;10.80;5.97;;;;;;;35.88;27.64;97636.44;10290858;28;20120;-55
2023/07/13 10:49:01;;;;;;;11.10;5.50;;;;;;;35.95;26.28;97627.50;10290604;28;20053;-53
2023/07/13 10:54:34;;;;;;;8.82;5.82;;;;;;;36.10;25.93;97625.03;10289721;28;20117;-52
2023/07/13 10:59:33;;;;;;;11.00;5.43;;;;;;;36.16;26.33;97621.69;10289958;28;20069;-53
2023/07/13 11:04:47;;;;;;;9.82;5.75;;;;;;;36.28;24.98;97624.06;10288782;28;20065;-54
2023/07/13 11:09:51;;;;;;;11.30;5.70;;;;;;;36.47;25.91;97620.19;10287416;28;20053;-51
2023/07/13 11:14:57;;;;;;;10.27;5.85;;;;;;;36.59;24.76;97622.38;10287789;28;20125;-52
2023/07/13 11:20:12;;;;;;;13.00;7.17;;;;;;;36.69;26.08;97607.84;10288404;28;20065;-53
2023/07/13 11:25:23;;;;;;;9.15;6.47;;;;;;;36.81;25.08;97603.78;10286400;28;20049;-52
2023/07/13 11:30:28;;;;;;;10.95;5.85;;;;;;;36.83;26.57;97601.75;10286632;28;20073;-54
2023/07/13 11:35:27;;;;;;;11.05;5.72;;;;;;;36.99;26.46;97612.53;10287096;28;20133;-53
2023/07/13 11:40:29;;;;;;;9.70;5.35;;;;;;;37.17;26.25;97603.41;10288332;28;20562;-53
2023/07/13 11:45:28;;;;;;;10.57;5.80;;;;;;;37.38;26.16;97589.28;10287651;28;20064;-53
2023/07/13 11:50:28;;;;;;;10.13;6.78;;;;;;;37.51;25.16;97577.91;10284285;28;20046;-53
2023/07/13 11:55:28;;;;;;;10.38;5.95;;;;;;;37.67;25.88;97558.88;10282013;28;20129;-54
2023/07/13 12:00:31;;;;;;;11.15;6.20;;;;;;;37.83;25.94;97563.34;10284063;28;20620;-53
2023/07/13 12:05:31;;;;;;;36.22;8.93;;;;;;;37.96;26.04;97552.81;10282763;28;20065;-52
2023/07/13 12:10:32;;;;;;;11.93;5.90;;;;;;;38.05;27.32;97548.16;10284133;28;20054;-53
2023/07/13 12:15:41;;;;;;;9.73;5.82;;;;;;;38.15;25.45;97537.94;10284273;28;20196;-53
2023/07/13 12:20:40;;;;;;;11.88;5.85;;;;;;;38.35;25.82;97537.41;10284407;28;20589;-53
2023/07/13 12:25:39;;;;;;;11.10;6.13;;;;;;;38.50;25.00;97524.78;10282760;28;20066;-52
2023/07/13 12:30:38;;;;;;;15.13;6.60;;;;;;;38.66;26.86;97518.31;10283245;28;20034;-53
2023/07/13 12:35:49;;;;;;;10.05;6.20;;;;;;;38.53;23.99;97497.28;10283077;28;20030;-52
2023/07/13 12:40:53;;;;;;;8.20;5.53;;;;;;;38.91;25.98;97509.94;10283373;28;20046;-53
2023/07/13 12:45:59;;;;;;;12.50;5.93;;;;;;;38.93;22.49;97503.31;10282796;28;20467;-52
2023/07/13 12:51:01;;;;;;;13.43;6.30;;;;;;;38.94;22.84;97502.25;10274392;28;20168;-53
2023/07/13 12:56:03;;;;;;;11.15;6.25;;;;;;;39.02;23.81;97506.78;10278041;28;20133;-55
2023/07/13 13:01:04;;;;;;;14.05;6.63;;;;;;;39.00;22.71;97487.94;10277365;28;20157;-51
2023/07/13 13:06:16;;;;;;;13.30;6.65;;;;;;;39.23;22.92;97500.56;10278652;28;20156;-53
2023/07/13 13:11:19;;;;;;;12.93;5.78;;;;;;;39.34;21.21;97496.53;10281589;28;20120;-52
2023/07/13 13:16:21;;;;;;;12.48;6.13;;;;;;;39.56;23.27;97502.84;10280013;28;20121;-53
2023/07/13 13:21:21;;;;;;;18.05;5.78;;;;;;;39.48;20.90;97499.22;10282319;28;20065;-53
2023/07/13 13:26:22;;;;;;;14.13;6.07;;;;;;;39.35;21.81;97499.06;10281608;28;20483;-53
2023/07/13 13:31:21;;;;;;;13.52;5.97;;;;;;;39.59;23.42;97499.75;10282278;28;20072;-53
2023/07/13 13:36:22;;;;;;;13.05;6.72;;;;;;;39.60;21.68;97499.56;10282026;28;20018;-53
2023/07/13 13:41:21;;;;;;;9.00;5.88;;;;;;;39.66;21.67;97484.38;10281535;28;20129;-53
2023/07/13 13:46:29;;;;;;;12.07;6.28;;;;;;;39.48;21.86;97479.34;10282315;28;20061;-53
2023/07/13 13:51:29;;;;;;;13.57;6.57;;;;;;;39.54;22.75;97466.91;10281605;28;20451;-53
2023/07/13 13:56:28;;;;;;;20.38;7.28;;;;;;;39.57;21.45;97466.50;10283656;28;20132;-52
2023/07/13 14:01:29;;;;;;;11.93;6.57;;;;;;;39.67;22.92;97473.31;10285364;28;20050;-52
2023/07/13 14:06:28;;;;;;;11.05;6.28;;;;;;;39.82;21.46;97469.72;10287006;28;20141;-53
2023/07/13 14:11:27;;;;;;;9.68;6.03;;;;;;;39.90;22.09;97461.41;10287303;28;20153;-53
2023/07/13 14:16:31;;;;;;;9.23;6.22;;;;;;;39.79;21.11;97449.22;10287613;28;20189;-53
2023/07/13 14:21:30;;;;;;;21.02;6.72;;;;;;;39.71;22.58;97457.50;10291431;28;20491;-51
2023/07/13 14:26:36;;;;;;;8.65;6.35;;;;;;;39.20;22.39;97455.63;10289503;28;20061;-52
2023/07/13 14:31:35;;;;;;;10.23;6.78;;;;;;;38.90;22.92;97454.84;10287921;28;20070;-53
2023/07/13 14:36:41;;;;;;;12.90;7.03;;;;;;;38.98;23.15;97446.59;10290872;28;20112;-55
2023/07/13 14:41:40;;;;;;;11.13;6.13;;;;;;;39.29;22.98;97445.53;10291315;28;20092;-53
2023/07/13 14:46:39;;;;;;;10.65;6.65;;;;;;;39.39;23.62;97437.06;10290083;28;20381;-53
2023/07/13 14:51:38;;;;;;;15.15;6.95;;;;;;;39.50;23.20;97437.41;10287372;28;20076;-54
2023/07/13 14:56:37;;;;;;;35.35;9.55;;;;;;;39.39;24.16;97394.50;10289975;28;20034;-54
2023/07/13 15:01:38;;;;;;;44.00;13.70;;;;;;;39.73;24.80;97430.97;10289025;28;20127;-52
2023/07/13 15:06:59;;;;;;;26.60;7.63;;;;;;;39.76;26.02;97438.72;10290390;28;20135;-53
2023/07/13 15:11:58;;;;;;;27.10;8.65;;;;;;;39.74;26.18;97434.53;10289333;28;20068;-55
2023/07/13 15:16:58;;;;;;;27.05;8.23;;;;;;;39.77;27.33;97436.88;10289634;28;20522;-53
2023/07/13 15:21:57;;;;;;;42.53;9.52;;;;;;;39.42;26.71;97418.53;10286165;28;20569;-55
2023/07/13 15:26:56;;;;;;;21.45;9.32;;;;;;;39.44;28.45;97446.34;10285422;28;20117;-52
2023/07/13 15:31:55;;;;;;;18.65;8.30;;;;;;;39.32;29.35;97445.16;10284380;28;20050;-53
2023/07/13 15:36:55;;;;;;;40.83;10.98;;;;;;;39.19;30.97;97443.09;10285548;28;20145;-54
2023/07/13 15:41:54;;;;;;;12.80;7.30;;;;;;;39.05;31.92;97436.66;10284100;28;20121;-54
2023/07/13 15:46:54;;;;;;;12.88;6.65;;;;;;;38.78;32.13;97435.47;10285007;28;20069;-53
2023/07/13 15:51:53;;;;;;;12.05;6.78;;;;;;;38.42;32.82;97425.38;10285220;28;20137;-53
2023/07/13 15:56:55;;;;;;;12.77;7.30;;;;;;;38.13;33.42;97425.31;10284152;28;20041;-52
2023/07/13 16:01:54;;;;;;;9.82;6.65;;;;;;;37.95;33.87;97417.53;10284388;28;20170;-53
2023/07/13 16:06:53;;;;;;;14.32;7.57;;;;;;;37.75;34.36;97426.13;10284565;28;20420;-53
2023/07/13 16:11:54;;;;;;;12.05;7.05;;;;;;;36.54;35.10;97273.38;10283595;28;20065;-53
2023/07/13 16:16:55;;;;;;;11.50;7.50;;;;;;;37.28;35.14;97427.09;10282973;28;20128;-53
2023/07/13 16:21:55;;;;;;;12.98;7.47;;;;;;;37.08;35.74;97425.91;10287079;28;20072;-54
2023/07/13 16:26:55;;;;;;;12.15;6.82;;;;;;;36.82;36.10;97434.28;10286698;28;20049;-53
2023/07/13 16:31:57;;;;;;;11.85;7.55;;;;;;;36.56;35.98;97421.88;10286162;28;20077;-53
2023/07/13 16:36:56;;;;;;;10.45;6.68;;;;;;;36.27;36.77;97395.38;10286669;28;20073;-53
2023/07/13 16:41:58;;;;;;;13.30;8.10;;;;;;;36.21;37.03;97420.41;10286387;28;20526;-54
2023/07/13 16:47:00;;;;;;;12.95;8.30;;;;;;;35.93;37.80;97420.75;10281520;28;20645;-53
2023/07/13 16:52:02;;;;;;;12.55;7.47;;;;;;;35.66;38.33;97420.06;10283983;28;20058;-55
2023/07/13 16:57:11;;;;;;;14.32;7.63;;;;;;;35.42;37.79;97433.53;10286469;28;20081;-53
2023/07/13 17:02:36;;;;;;;14.48;8.00;;;;;;;35.16;38.77;97434.47;10285800;28;20061;-54
2023/07/13 17:07:35;;;;;;;14.13;8.93;;;;;;;34.91;39.42;97430.81;10285688;28;20076;-53
2023/07/13 17:12:34;;;;;;;12.25;7.85;;;;;;;34.58;39.38;97437.91;10284470;28;20034;-52
2023/07/13 17:17:36;;;;;;;13.65;8.07;;;;;;;34.35;39.45;97441.13;10285394;28;20113;-52
2023/07/13 17:22:35;;;;;;;16.83;8.85;;;;;;;34.03;39.85;97431.81;10282320;28;20377;-53
2023/07/13 17:27:34;;;;;;;15.05;7.75;;;;;;;33.53;41.28;97434.22;10281638;28;20454;-53
2023/07/13 17:32:34;;;;;;;13.60;8.45;;;;;;;33.12;43.10;97431.16;10288419;28;20141;-53
2023/07/13 17:37:33;;;;;;;14.05;8.55;;;;;;;32.90;43.42;97432.34;10289774;28;20073;-52
2023/07/13 17:42:31;;;;;;;15.65;9.32;;;;;;;32.53;44.56;97435.88;10289084;28;20124;-54
2023/07/13 17:47:31;;;;;;;16.48;10.43;;;;;;;32.17;43.46;97443.78;10290001;28;20136;-52
2023/07/13 17:52:30;;;;;;;17.15;10.30;;;;;;;31.88;44.41;97443.81;10288538;28;20575;-53
2023/07/13 17:57:30;;;;;;;14.57;8.70;;;;;;;31.58;44.73;97449.19;10288949;28;20506;-52
2023/07/13 18:02:31;;;;;;;12.95;8.68;;;;;;;31.23;46.47;97446.16;10288853;28;20491;-53
2023/07/13 18:07:30;;;;;;;15.18;10.10;;;;;;;30.79;47.95;97461.69;10288415;28;20069;-53
2023/07/13 18:12:29;;;;;;;17.25;9.07;;;;;;;30.53;48.87;97470.16;10288233;28;20176;-53
2023/07/13 18:17:28;;;;;;;15.57;10.13;;;;;;;30.28;49.25;97477.63;10288330;28;20030;-54
2023/07/13 18:22:27;;;;;;;12.85;9.10;;;;;;;29.92;48.56;97450.34;10290386;28;20113;-52
2023/07/13 18:27:26;;;;;;;15.60;9.40;;;;;;;29.78;49.31;97472.03;10291597;28;20068;-53
2023/07/13 18:32:27;;;;;;;20.20;10.02;;;;;;;29.68;49.12;97492.50;10290444;28;20125;-53
2023/07/13 18:37:27;;;;;;;16.63;9.32;;;;;;;29.35;49.52;97509.50;10291114;28;20069;-54
2023/07/13 18:42:26;;;;;;;16.98;10.30;;;;;;;29.18;51.52;97508.16;10288677;28;20064;-53
2023/07/13 18:47:29;;;;;;;16.38;9.65;;;;;;;28.95;53.65;97528.72;10289077;28;20076;-53
2023/07/13 18:52:28;;;;;;;21.05;11.30;;;;;;;28.80;54.73;97541.47;10289660;28;20061;-56
2023/07/13 18:57:27;;;;;;;14.93;11.48;;;;;;;28.65;55.90;97539.00;10289555;28;20129;-52
2023/07/13 19:02:26;;;;;;;22.65;13.05;;;;;;;28.45;58.00;97537.88;10289983;28;20061;-53
2023/07/13 19:07:25;;;;;;;21.95;11.02;;;;;;;28.23;57.56;97537.81;10290310;28;20026;-52
2023/07/13 19:12:27;;;;;;;19.02;10.20;;;;;;;28.09;56.20;97538.03;10288660;28;20034;-49
2023/07/13 19:17:26;;;;;;;15.75;9.75;;;;;;;27.93;56.12;97538.31;10289679;28;20083;-50
2023/07/13 19:22:26;;;;;;;16.75;10.07;;;;;;;27.77;56.36;97541.25;10285387;28;20042;-52
2023/07/13 19:27:25;;;;;;;19.65;10.00;;;;;;;27.65;56.60;97535.03;10285278;28;20460;-51
2023/07/13 19:32:24;;;;;;;20.55;9.75;;;;;;;27.47;56.94;97539.03;10285099;28;20476;-52
2023/07/13 19:37:24;;;;;;;15.38;10.23;;;;;;;27.27;57.85;97556.47;10285530;28;20583;-51
2023/07/13 19:42:25;;;;;;;21.42;12.23;;;;;;;26.87;62.01;97557.50;10284639;28;20136;-52
2023/07/13 19:47:24;;;;;;;21.90;9.98;;;;;;;26.76;61.28;97565.34;10285085;28;20455;-52
2023/07/13 19:52:28;;;;;;;16.67;9.55;;;;;;;26.60;60.32;97564.69;10283471;28;20149;-52
2023/07/13 19:57:28;;;;;;;15.25;10.15;;;;;;;26.56;59.91;97556.94;10284070;28;20057;-50
2023/07/13 20:02:27;;;;;;;15.50;9.70;;;;;;;26.46;59.90;97553.19;10284375;28;20157;-52
2023/07/13 20:07:26;;;;;;;19.17;11.55;;;;;;;26.48;61.39;97563.75;10282717;28;20041;-53
2023/07/13 20:12:26;;;;;;;15.55;11.27;;;;;;;26.32;61.43;97566.59;10283557;28;20025;-53
2023/07/13 20:17:40;;;;;;;18.63;10.55;;;;;;;26.11;63.06;97575.06;10284299;28;20130;-53
2023/07/13 20:22:39;;;;;;;27.08;11.43;;;;;;;26.01;62.81;97568.63;10282403;28;20057;-53
2023/07/13 20:27:38;;;;;;;17.70;11.43;;;;;;;25.78;64.01;97563.97;10282886;28;20036;-51
2023/07/13 20:32:38;;;;;;;31.70;15.55;;;;;;;25.65;65.50;97562.13;10283174;28;20136;-52
2023/07/13 20:37:38;;;;;;;26.10;14.60;;;;;;;25.57;66.04;97572.41;10283453;28;20116;-50
2023/07/13 20:42:37;;;;;;;25.63;13.77;;;;;;;25.49;67.84;97577.34;10283369;28;20506;-52
2023/07/13 20:47:37;;;;;;;17.85;12.38;;;;;;;25.34;68.98;97571.22;10284073;28;20578;-52
2023/07/13 20:52:36;;;;;;;19.38;11.63;;;;;;;25.20;69.23;97553.50;10282462;28;20554;-51
2023/07/13 20:57:36;;;;;;;22.05;12.43;;;;;;;25.14;71.05;97553.88;10283036;28;20446;-49
2023/07/13 21:02:35;;;;;;;18.55;11.40;;;;;;;25.06;70.84;97551.72;10282706;28;20065;-52
2023/07/13 21:07:34;;;;;;;18.67;12.07;;;;;;;24.99;71.87;97552.19;10290884;28;20084;-52
2023/07/13 21:12:33;;;;;;;21.67;13.50;;;;;;;24.83;73.96;97546.97;10290621;28;20033;-52
2023/07/13 21:17:33;;;;;;;20.38;12.52;;;;;;;24.76;75.06;97562.41;10290613;28;20326;-51
2023/07/13 21:22:32;;;;;;;19.23;12.90;;;;;;;24.64;75.75;97561.38;10293848;28;20073;-52
2023/07/13 21:27:31;;;;;;;25.13;12.52;;;;;;;24.57;75.01;97553.88;10293868;28;20120;-52
2023/07/13 21:32:30;;;;;;;19.27;12.73;;;;;;;24.49;74.82;97557.81;10293515;28;20121;-53
2023/07/13 21:37:30;;;;;;;22.95;13.05;;;;;;;24.38;75.12;97557.66;10292831;28;20088;-51
2023/07/13 21:42:28;;;;;;;21.20;12.25;;;;;;;24.22;75.75;97549.75;10292477;28;20061;-53
2023/07/13 21:47:27;;;;;;;19.95;13.02;;;;;;;24.30;74.39;97554.59;10293463;28;20040;-51
2023/07/13 21:52:26;;;;;;;19.45;13.52;;;;;;;24.28;75.74;97556.47;10292129;28;20630;-54
2023/07/13 21:57:28;;;;;;;18.23;13.05;;;;;;;24.05;76.98;97539.25;10292520;28;20397;-51
2023/07/13 22:02:27;;;;;;;20.95;14.07;;;;;;;24.06;77.65;97533.84;10292608;28;20105;-52
2023/07/13 22:07:26;;;;;;;22.88;12.48;;;;;;;24.02;77.86;97537.63;10292408;28;20062;-53
2023/07/13 22:12:25;;;;;;;18.60;12.35;;;;;;;23.94;77.27;97521.34;10288783;28;20134;-53
2023/07/13 22:17:24;;;;;;;16.73;10.65;;;;;;;23.87;76.38;97516.50;10286204;28;20472;-53
2023/07/13 22:22:23;;;;;;;26.67;11.80;;;;;;;23.63;76.35;97486.03;10284811;28;20484;-50
2023/07/13 22:27:23;;;;;;;18.08;11.73;;;;;;;23.56;77.75;97495.28;10286729;28;20188;-52
2023/07/13 22:32:22;;;;;;;21.20;12.35;;;;;;;23.58;78.00;97498.69;10285770;28;20153;-50
2023/07/13 22:37:21;;;;;;;17.40;11.60;;;;;;;23.52;78.99;97499.03;10287871;28;20473;-50
2023/07/13 22:42:20;;;;;;;19.67;11.82;;;;;;;23.47;78.89;97485.22;10287879;28;20702;-52
2023/07/13 22:47:20;;;;;;;21.65;12.13;;;;;;;23.30;79.47;97493.22;10287432;28;20046;-51
2023/07/13 22:52:19;;;;;;;20.42;13.00;;;;;;;23.10;81.17;97497.84;10287609;28;20069;-51
2023/07/13 22:57:20;;;;;;;20.35;12.65;;;;;;;22.99;80.53;97468.47;10286420;28;20033;-51